Time;durP1;ratioP1;P1;durP2;ratioP2;P2;SDS_P1;SDS_P2;PMS_P1;PMS_P2;Temp;Humidity;BMP_temperature;BMP_pressure;BME280_temperature;BME280_humidity;BME280_pressure;Samples;Min_cycle;Max_cycle;Signal;HPM_P1;HPM_P2
2023/07/29 00:02:22;;;;;;;;;;;21.10;68.10;;;;;;5000859;28;1354;-70
2023/07/29 00:04:47;;;;;;;;;;;21.10;68.10;;;;;;4988887;28;883;-70
2023/07/29 00:07:13;;;;;;;;;;;21.10;68.10;;;;;;5001546;28;1305;-70
2023/07/29 00:09:38;;;;;;;;;;;21.10;68.10;;;;;;5010138;28;875;-70
2023/07/29 00:12:04;;;;;;;;;;;21.10;68.10;;;;;;5003156;28;1906;-70
2023/07/29 00:14:29;;;;;;;;;;;21.10;68.10;;;;;;5003029;28;1200;-70
2023/07/29 00:16:55;;;;;;;;;;;21.10;68.10;;;;;;4998496;28;881;-69
2023/07/29 00:19:23;;;;;;;;;;;21.10;68.10;;;;;;5002004;28;1770;-69
2023/07/29 00:21:49;;;;;;;;;;;21.10;68.10;;;;;;5000667;28;1350;-69
2023/07/29 00:24:14;;;;;;;;;;;21.10;68.10;;;;;;4998860;28;849;-69
2023/07/29 00:26:39;;;;;;;;;;;21.10;68.10;;;;;;5003689;28;814;-69
2023/07/29 00:29:05;;;;;;;;;;;21.10;68.10;;;;;;5002304;28;1245;-69
2023/07/29 00:31:30;;;;;;;;;;;21.10;68.10;;;;;;4996400;28;1938;-69
2023/07/29 00:33:58;;;;;;;;;;;21.10;68.10;;;;;;4994692;28;1282;-71
2023/07/29 00:36:23;;;;;;;;;;;21.10;68.10;;;;;;4997106;28;812;-71
2023/07/29 00:38:49;;;;;;;;;;;21.10;68.10;;;;;;4999626;28;817;-70
2023/07/29 00:41:14;;;;;;;;;;;21.10;68.10;;;;;;5006291;28;926;-70
2023/07/29 00:43:39;;;;;;;;;;;21.10;68.10;;;;;;4996625;28;1253;-70
2023/07/29 00:46:05;;;;;;;;;;;21.10;68.10;;;;;;4998572;28;867;-69
2023/07/29 00:48:30;;;;;;;;;;;21.10;68.10;;;;;;4986125;28;872;-71
2023/07/29 00:50:56;;;;;;;;;;;21.10;68.10;;;;;;4999986;28;1906;-69
2023/07/29 00:53:21;;;;;;;;;;;21.10;68.10;;;;;;4986778;28;1310;-69
2023/07/29 00:55:47;;;;;;;;;;;21.10;68.10;;;;;;4985773;28;808;-70
2023/07/29 00:58:12;;;;;;;;;;;21.10;68.10;;;;;;5000058;28;841;-69
2023/07/29 01:00:38;;;;;;;;;;;21.10;68.10;;;;;;5002418;28;959;-70
2023/07/29 01:03:03;;;;;;;;;;;21.10;68.10;;;;;;5014770;28;1194;-70
2023/07/29 01:05:32;;;;;;;;;;;21.10;68.10;;;;;;5014797;28;887;-69
2023/07/29 01:08:00;;;;;;;;;;;21.10;68.10;;;;;;4992853;28;880;-69
2023/07/29 01:10:29;;;;;;;;;;;21.10;68.10;;;;;;5014428;28;1957;-69
2023/07/29 01:12:57;;;;;;;;;;;21.10;68.10;;;;;;5014243;28;1292;-69
2023/07/29 01:15:23;;;;;;;;;;;21.10;68.10;;;;;;4990828;28;887;-69
2023/07/29 01:18:04;;;;;;;;;;;21.10;68.10;;;;;;5009135;28;864;-69
2023/07/29 01:20:29;;;;;;;;;;;21.10;68.10;;;;;;4993698;28;821;-69
2023/07/29 01:22:55;;;;;;;;;;;21.10;68.10;;;;;;4997664;28;1253;-69
2023/07/29 01:25:20;;;;;;;;;;;21.10;68.10;;;;;;5006567;28;837;-69
2023/07/29 01:27:46;;;;;;;;;;;21.10;68.10;;;;;;4998151;28;1085;-69
2023/07/29 01:30:12;;;;;;;;;;;21.10;68.10;;;;;;4982035;28;1969;-71
2023/07/29 01:32:46;;;;;;;;;;;21.10;68.10;;;;;;5010341;28;1189;-69
2023/07/29 01:35:30;;;;;;;;;;;21.10;68.20;;;;;;4988313;28;1043;-68
2023/07/29 01:37:56;;;;;;;;;;;21.10;68.10;;;;;;5006672;28;983;-69
2023/07/29 01:40:26;;;;;;;;;;;21.10;68.10;;;;;;5008490;28;926;-69
2023/07/29 01:42:52;;;;;;;;;;;21.10;68.10;;;;;;5001667;28;1357;-69
2023/07/29 01:45:17;;;;;;;;;;;21.10;68.10;;;;;;5002691;28;907;-69
2023/07/29 01:47:42;;;;;;;;;;;21.10;68.20;;;;;;5003875;28;899;-69
2023/07/29 01:50:09;;;;;;;;;;;21.10;68.10;;;;;;4995396;28;1914;-68
2023/07/29 01:52:34;;;;;;;;;;;21.10;68.20;;;;;;4995189;28;1249;-68
2023/07/29 01:55:00;;;;;;;;;;;21.10;68.20;;;;;;4999772;28;842;-68
2023/07/29 01:57:25;;;;;;;;;;;21.10;68.20;;;;;;5001020;28;951;-68
2023/07/29 01:59:50;;;;;;;;;;;21.10;68.20;;;;;;5004050;28;1094;-70
2023/07/29 02:02:16;;;;;;;;;;;21.10;68.20;;;;;;4994432;28;1733;-69
2023/07/29 02:04:41;;;;;;;;;;;21.10;68.20;;;;;;4999094;28;853;-69
2023/07/29 02:07:07;;;;;;;;;;;21.10;68.20;;;;;;5001022;28;1570;-69
2023/07/29 02:09:32;;;;;;;;;;;21.10;68.20;;;;;;5003022;28;883;-69
2023/07/29 02:11:58;;;;;;;;;;;21.10;68.20;;;;;;4998701;28;1899;-69
2023/07/29 02:14:23;;;;;;;;;;;21.10;68.20;;;;;;5001025;28;869;-69
2023/07/29 02:16:49;;;;;;;;;;;21.10;68.20;;;;;;4998300;28;1164;-70
2023/07/29 02:19:15;;;;;;;;;;;21.10;68.20;;;;;;4998479;28;1367;-69
2023/07/29 02:21:40;;;;;;;;;;;21.10;68.20;;;;;;4999098;28;1341;-70
2023/07/29 02:24:06;;;;;;;;;;;21.10;68.20;;;;;;4992209;28;1457;-70
2023/07/29 02:26:31;;;;;;;;;;;21.10;68.20;;;;;;5000287;28;1317;-71
2023/07/29 02:28:57;;;;;;;;;;;21.10;68.20;;;;;;4998267;28;1326;-69
2023/07/29 02:31:23;;;;;;;;;;;21.10;68.20;;;;;;5000690;28;2016;-68
2023/07/29 02:33:49;;;;;;;;;;;21.10;68.20;;;;;;5001077;28;1635;-68
2023/07/29 02:36:15;;;;;;;;;;;21.10;68.20;;;;;;4985785;28;959;-68
2023/07/29 02:38:40;;;;;;;;;;;21.10;68.20;;;;;;4997099;28;876;-70
2023/07/29 02:41:06;;;;;;;;;;;21.10;68.20;;;;;;4996899;28;919;-71
2023/07/29 02:43:31;;;;;;;;;;;21.10;68.20;;;;;;4999577;28;1366;-70
2023/07/29 02:45:57;;;;;;;;;;;21.10;68.20;;;;;;5000874;28;1035;-70
2023/07/29 02:48:22;;;;;;;;;;;21.10;68.20;;;;;;4999882;28;910;-69
2023/07/29 02:50:48;;;;;;;;;;;21.10;68.20;;;;;;4996145;28;1914;-70
2023/07/29 02:53:13;;;;;;;;;;;21.10;68.20;;;;;;4996347;28;1362;-70
2023/07/29 02:55:42;;;;;;;;;;;21.10;68.20;;;;;;4998403;28;1234;-69
2023/07/29 02:58:07;;;;;;;;;;;21.10;68.20;;;;;;5000983;28;1187;-69
2023/07/29 03:00:33;;;;;;;;;;;21.10;68.20;;;;;;5001906;28;850;-69
2023/07/29 03:02:58;;;;;;;;;;;21.10;68.20;;;;;;5002719;28;1575;-69
2023/07/29 03:05:24;;;;;;;;;;;21.10;68.20;;;;;;4998739;28;1511;-70
2023/07/29 03:07:49;;;;;;;;;;;21.10;68.20;;;;;;5001325;28;1010;-69
2023/07/29 03:10:15;;;;;;;;;;;21.10;68.20;;;;;;5005985;28;1984;-69
2023/07/29 03:12:40;;;;;;;;;;;21.10;68.20;;;;;;4994809;28;1363;-69
2023/07/29 03:15:06;;;;;;;;;;;21.10;68.20;;;;;;5001582;28;935;-69
2023/07/29 03:17:31;;;;;;;;;;;21.10;68.20;;;;;;5001655;28;784;-70
2023/07/29 03:19:57;;;;;;;;;;;21.10;68.20;;;;;;4992930;28;1321;-69
2023/07/29 03:22:22;;;;;;;;;;;21.10;68.20;;;;;;5004640;28;1263;-70
2023/07/29 03:24:48;;;;;;;;;;;21.10;69.00;;;;;;5008034;28;927;-69
2023/07/29 03:27:15;;;;;;;;;;;21.10;68.20;;;;;;4999957;28;1268;-69
2023/07/29 03:29:41;;;;;;;;;;;21.10;68.20;;;;;;5005599;28;821;-69
2023/07/29 03:32:06;;;;;;;;;;;21.10;68.20;;;;;;4987966;28;1957;-69
2023/07/29 03:34:32;;;;;;;;;;;21.10;68.20;;;;;;5005996;28;1007;-70
2023/07/29 03:36:58;;;;;;;;;;;21.10;68.20;;;;;;5004628;28;875;-69
2023/07/29 03:39:24;;;;;;;;;;;21.10;68.20;;;;;;4980190;28;1043;-69
2023/07/29 03:41:49;;;;;;;;;;;21.10;68.20;;;;;;5003399;28;1376;-69
2023/07/29 03:44:15;;;;;;;;;;;21.10;68.20;;;;;;5002704;28;936;-69
2023/07/29 03:46:40;;;;;;;;;;;21.10;68.30;;;;;;4989024;28;892;-69
2023/07/29 03:49:06;;;;;;;;;;;21.10;68.20;;;;;;4990227;28;994;-69
2023/07/29 03:51:31;;;;;;;;;;;21.10;68.20;;;;;;5001050;28;1969;-69
2023/07/29 03:53:57;;;;;;;;;;;21.10;68.20;;;;;;5000446;28;1001;-69
2023/07/29 03:56:22;;;;;;;;;;;21.10;68.20;;;;;;5000521;28;900;-69
2023/07/29 03:58:49;;;;;;;;;;;21.10;68.20;;;;;;5002699;28;1050;-69
2023/07/29 04:01:14;;;;;;;;;;;21.10;68.20;;;;;;5006919;28;940;-69
2023/07/29 04:03:40;;;;;;;;;;;21.10;68.20;;;;;;5002463;28;1269;-70
2023/07/29 04:06:05;;;;;;;;;;;21.10;68.30;;;;;;5002052;28;1622;-69
2023/07/29 04:08:31;;;;;;;;;;;21.10;68.20;;;;;;4997014;28;1209;-70
2023/07/29 04:10:56;;;;;;;;;;;21.10;68.20;;;;;;4998965;28;1973;-69
2023/07/29 04:13:22;;;;;;;;;;;21.10;68.20;;;;;;5003803;28;1234;-69
2023/07/29 04:15:47;;;;;;;;;;;21.10;68.30;;;;;;5000219;28;1023;-69
2023/07/29 04:18:13;;;;;;;;;;;21.10;68.20;;;;;;4989400;28;2175;-68
2023/07/29 04:20:38;;;;;;;;;;;21.10;68.20;;;;;;5002672;28;1854;-69
2023/07/29 04:23:04;;;;;;;;;;;21.10;68.20;;;;;;5002158;28;1380;-68
2023/07/29 04:25:29;;;;;;;;;;;21.10;69.00;;;;;;5001007;28;1597;-67
2023/07/29 04:27:57;;;;;;;;;;;21.10;68.30;;;;;;4997642;28;1560;-68
2023/07/29 04:30:22;;;;;;;;;;;21.10;68.30;;;;;;5002237;28;1934;-68
2023/07/29 04:32:48;;;;;;;;;;;21.10;68.20;;;;;;4999749;28;1356;-68
2023/07/29 04:35:14;;;;;;;;;;;21.10;68.30;;;;;;5000307;28;1295;-73
2023/07/29 04:37:40;;;;;;;;;;;21.10;68.30;;;;;;4997588;28;878;-68
2023/07/29 04:40:06;;;;;;;;;;;21.10;68.30;;;;;;4997021;28;806;-69
2023/07/29 04:42:31;;;;;;;;;;;21.10;68.20;;;;;;4997624;28;1811;-71
2023/07/29 04:44:57;;;;;;;;;;;21.10;68.30;;;;;;4998432;28;1322;-70
2023/07/29 04:47:22;;;;;;;;;;;21.10;68.30;;;;;;5000415;28;1400;-70
2023/07/29 04:49:48;;;;;;;;;;;21.10;68.30;;;;;;4996739;28;919;-69
2023/07/29 04:52:14;;;;;;;;;;;21.10;68.30;;;;;;4999827;28;1980;-69
2023/07/29 04:54:40;;;;;;;;;;;21.10;68.30;;;;;;4997288;28;852;-68
2023/07/29 04:57:05;;;;;;;;;;;21.10;68.30;;;;;;4996568;28;1030;-69
2023/07/29 04:59:31;;;;;;;;;;;21.10;68.30;;;;;;4997770;28;903;-69
2023/07/29 05:01:56;;;;;;;;;;;21.10;68.30;;;;;;4999327;28;1374;-69
2023/07/29 05:04:22;;;;;;;;;;;21.10;68.30;;;;;;5001143;28;1262;-69
2023/07/29 05:06:48;;;;;;;;;;;21.10;68.30;;;;;;4997529;28;865;-70
2023/07/29 05:09:17;;;;;;;;;;;21.10;68.30;;;;;;4996658;28;875;-69
2023/07/29 05:11:46;;;;;;;;;;;21.10;68.30;;;;;;4998212;28;1969;-69
2023/07/29 05:14:16;;;;;;;;;;;21.10;68.30;;;;;;4985320;28;879;-70
2023/07/29 05:16:41;;;;;;;;;;;21.10;68.30;;;;;;5000316;28;873;-70
2023/07/29 05:19:07;;;;;;;;;;;21.10;68.30;;;;;;4998573;28;1681;-69
2023/07/29 05:21:32;;;;;;;;;;;21.10;68.30;;;;;;4999536;28;1272;-68
2023/07/29 05:23:58;;;;;;;;;;;21.10;68.30;;;;;;4998502;28;852;-69
2023/07/29 05:26:23;;;;;;;;;;;21.10;68.30;;;;;;4997053;28;889;-68
2023/07/29 05:28:49;;;;;;;;;;;21.10;68.30;;;;;;4999937;28;1241;-69
2023/07/29 05:31:14;;;;;;;;;;;21.10;68.30;;;;;;5000564;28;1918;-69
2023/07/29 05:33:40;;;;;;;;;;;21.10;68.30;;;;;;4997145;28;1082;-69
2023/07/29 05:36:05;;;;;;;;;;;21.10;68.30;;;;;;5002237;28;1018;-69
2023/07/29 05:38:31;;;;;;;;;;;21.10;68.30;;;;;;4986556;28;1227;-69
2023/07/29 05:40:56;;;;;;;;;;;21.10;68.30;;;;;;4996205;28;933;-68
2023/07/29 05:43:23;;;;;;;;;;;21.10;68.30;;;;;;4995981;28;1394;-69
2023/07/29 05:45:49;;;;;;;;;;;21.10;68.30;;;;;;4997625;28;1007;-68
2023/07/29 05:48:14;;;;;;;;;;;21.10;68.30;;;;;;4998311;28;1306;-69
2023/07/29 05:50:40;;;;;;;;;;;21.10;68.30;;;;;;4999512;28;1914;-69
2023/07/29 05:53:05;;;;;;;;;;;21.10;68.40;;;;;;5000151;28;1360;-69
2023/07/29 05:55:30;;;;;;;;;;;21.10;68.30;;;;;;5002580;28;1042;-69
2023/07/29 05:57:57;;;;;;;;;;;21.10;68.30;;;;;;4999494;28;873;-69
2023/07/29 06:00:23;;;;;;;;;;;21.10;68.30;;;;;;5002631;28;887;-69
2023/07/29 06:02:48;;;;;;;;;;;21.10;68.30;;;;;;4997614;28;1257;-69
2023/07/29 06:05:13;;;;;;;;;;;21.10;68.30;;;;;;4998720;28;1267;-68
2023/07/29 06:07:43;;;;;;;;;;;21.10;68.40;;;;;;4986406;28;973;-68
2023/07/29 06:10:11;;;;;;;;;;;21.10;68.30;;;;;;4998666;28;1934;-67
2023/07/29 06:12:37;;;;;;;;;;;21.10;68.30;;;;;;5002287;28;1276;-67
2023/07/29 06:15:03;;;;;;;;;;;21.10;68.30;;;;;;4999932;28;826;-69
2023/07/29 06:17:28;;;;;;;;;;;21.10;68.40;;;;;;5001113;28;821;-68
2023/07/29 06:19:54;;;;;;;;;;;21.10;68.30;;;;;;4997479;28;2092;-69
2023/07/29 06:22:19;;;;;;;;;;;21.10;68.30;;;;;;4999761;28;1284;-68
2023/07/29 06:24:45;;;;;;;;;;;21.10;68.30;;;;;;4999609;28;1299;-68
2023/07/29 06:27:10;;;;;;;;;;;21.10;68.30;;;;;;5000660;28;1267;-67
2023/07/29 06:29:36;;;;;;;;;;;21.10;68.30;;;;;;4999571;28;956;-67
2023/07/29 06:32:01;;;;;;;;;;;21.10;68.40;;;;;;4999354;28;1969;-67
2023/07/29 06:34:27;;;;;;;;;;;21.10;68.30;;;;;;4998648;28;990;-67
2023/07/29 06:36:52;;;;;;;;;;;21.10;68.40;;;;;;4997156;28;863;-67
2023/07/29 06:39:18;;;;;;;;;;;21.10;68.40;;;;;;4998880;28;853;-68
2023/07/29 06:41:43;;;;;;;;;;;21.10;68.40;;;;;;5004509;28;1717;-67
2023/07/29 06:44:08;;;;;;;;;;;21.10;68.40;;;;;;4999655;28;991;-70
2023/07/29 06:46:34;;;;;;;;;;;21.10;68.40;;;;;;4996822;28;884;-68
2023/07/29 06:48:59;;;;;;;;;;;21.10;68.40;;;;;;4996853;28;836;-71
2023/07/29 06:51:25;;;;;;;;;;;21.10;68.40;;;;;;4984300;28;1974;-70
2023/07/29 06:53:50;;;;;;;;;;;21.10;68.40;;;;;;5000759;28;808;-67
2023/07/29 06:56:16;;;;;;;;;;;21.10;68.40;;;;;;4999511;28;2449;-68
2023/07/29 06:58:41;;;;;;;;;;;21.10;68.40;;;;;;4996171;28;1235;-68
2023/07/29 07:01:07;;;;;;;;;;;21.10;68.40;;;;;;4997893;28;2108;-68
2023/07/29 07:03:32;;;;;;;;;;;21.10;68.40;;;;;;5001629;28;2076;-68
2023/07/29 07:05:58;;;;;;;;;;;21.10;68.40;;;;;;5001439;28;1387;-68
2023/07/29 07:08:23;;;;;;;;;;;21.10;68.40;;;;;;5002862;28;1321;-68
2023/07/29 07:10:49;;;;;;;;;;;21.10;68.40;;;;;;4999736;28;1906;-68
2023/07/29 07:13:14;;;;;;;;;;;21.10;68.40;;;;;;4998882;28;1347;-68
2023/07/29 07:15:40;;;;;;;;;;;21.10;68.40;;;;;;4999468;28;896;-68
2023/07/29 07:18:05;;;;;;;;;;;21.10;68.40;;;;;;4996399;28;1059;-68
2023/07/29 07:20:31;;;;;;;;;;;21.10;68.40;;;;;;4997880;28;1459;-68
2023/07/29 07:22:56;;;;;;;;;;;21.10;68.40;;;;;;4998292;28;1257;-68
2023/07/29 07:25:21;;;;;;;;;;;21.10;68.40;;;;;;4998878;28;889;-68
2023/07/29 07:27:48;;;;;;;;;;;21.10;68.40;;;;;;4999058;28;902;-68
2023/07/29 07:30:14;;;;;;;;;;;21.10;68.40;;;;;;4997882;28;1914;-68
2023/07/29 07:32:39;;;;;;;;;;;21.10;68.40;;;;;;4995745;28;1272;-68
2023/07/29 07:35:05;;;;;;;;;;;21.10;68.40;;;;;;4996481;28;879;-68
2023/07/29 07:37:30;;;;;;;;;;;21.10;68.40;;;;;;5000767;28;860;-68
2023/07/29 07:39:56;;;;;;;;;;;21.10;68.40;;;;;;4998283;28;872;-68
2023/07/29 07:42:21;;;;;;;;;;;21.10;68.40;;;;;;4997536;28;1355;-68
2023/07/29 07:44:47;;;;;;;;;;;21.10;68.40;;;;;;4995244;28;967;-68
2023/07/29 07:47:12;;;;;;;;;;;21.10;68.40;;;;;;5001175;28;866;-68
2023/07/29 07:49:40;;;;;;;;;;;21.10;68.40;;;;;;4999726;28;1054;-68
2023/07/29 07:52:06;;;;;;;;;;;21.10;68.40;;;;;;4997379;28;1981;-68
2023/07/29 07:54:31;;;;;;;;;;;21.10;68.40;;;;;;5004116;28;896;-68
2023/07/29 07:56:57;;;;;;;;;;;21.10;68.40;;;;;;4999079;28;995;-68
2023/07/29 07:59:22;;;;;;;;;;;21.10;68.40;;;;;;4996315;28;856;-68
2023/07/29 08:01:48;;;;;;;;;;;21.10;68.40;;;;;;5001716;28;1354;-68
2023/07/29 08:04:13;;;;;;;;;;;21.10;68.40;;;;;;5003823;28;851;-68
2023/07/29 08:06:41;;;;;;;;;;;21.10;68.40;;;;;;4999593;28;831;-68
2023/07/29 08:09:07;;;;;;;;;;;21.10;68.40;;;;;;4998067;28;786;-68
2023/07/29 08:11:32;;;;;;;;;;;21.10;68.40;;;;;;5001416;28;1977;-68
2023/07/29 08:13:58;;;;;;;;;;;21.10;68.40;;;;;;5000087;28;845;-68
2023/07/29 08:16:23;;;;;;;;;;;21.10;68.40;;;;;;4999154;28;906;-68
2023/07/29 08:18:49;;;;;;;;;;;21.10;68.40;;;;;;5000327;28;1415;-68
2023/07/29 08:21:14;;;;;;;;;;;21.10;68.40;;;;;;4999932;28;852;-68
2023/07/29 08:23:40;;;;;;;;;;;21.10;68.40;;;;;;5000909;28;1260;-68
2023/07/29 08:26:05;;;;;;;;;;;21.10;68.40;;;;;;4998828;28;822;-68
2023/07/29 08:28:35;;;;;;;;;;;21.10;68.40;;;;;;5000565;28;1258;-68
2023/07/29 08:31:00;;;;;;;;;;;21.10;68.40;;;;;;4998715;28;1914;-68
2023/07/29 08:33:26;;;;;;;;;;;21.10;68.30;;;;;;5001024;28;1246;-68
2023/07/29 08:35:51;;;;;;;;;;;21.10;68.40;;;;;;4985916;28;1066;-68
2023/07/29 08:38:17;;;;;;;;;;;21.10;68.40;;;;;;5000004;28;1092;-68
2023/07/29 08:40:44;;;;;;;;;;;21.10;68.40;;;;;;4984002;28;969;-68
2023/07/29 08:43:09;;;;;;;;;;;21.10;68.40;;;;;;5000771;28;1291;-68
2023/07/29 08:45:35;;;;;;;;;;;21.10;69.10;;;;;;5001190;28;988;-68
2023/07/29 08:48:02;;;;;;;;;;;21.10;68.40;;;;;;4989467;28;872;-68
2023/07/29 08:50:27;;;;;;;;;;;21.10;68.40;;;;;;4996799;28;1934;-68
2023/07/29 08:52:53;;;;;;;;;;;21.10;68.40;;;;;;5001464;28;1292;-68
2023/07/29 08:55:18;;;;;;;;;;;21.10;68.40;;;;;;4984117;28;833;-68
2023/07/29 08:57:44;;;;;;;;;;;21.10;68.30;;;;;;4999715;28;1078;-68
2023/07/29 09:00:10;;;;;;;;;;;21.10;68.40;;;;;;5003430;28;866;-68
2023/07/29 09:02:35;;;;;;;;;;;21.10;68.40;;;;;;4999039;28;1199;-68
2023/07/29 09:05:01;;;;;;;;;;;21.10;68.70;;;;;;4999455;28;848;-68
2023/07/29 09:07:26;;;;;;;;;;;21.20;70.60;;;;;;4990324;28;947;-68
2023/07/29 09:09:52;;;;;;;;;;;21.20;72.10;;;;;;4995990;28;928;-68
2023/07/29 09:12:17;;;;;;;;;;;21.20;73.60;;;;;;5001146;28;1969;-68
2023/07/29 09:14:43;;;;;;;;;;;21.30;74.30;;;;;;4998912;28;1428;-68
2023/07/29 09:17:08;;;;;;;;;;;21.30;74.80;;;;;;4998960;28;876;-67
2023/07/29 09:19:34;;;;;;;;;;;21.30;75.70;;;;;;4986504;28;1316;-68
2023/07/29 09:22:00;;;;;;;;;;;21.40;76.10;;;;;;4997333;28;1246;-68
2023/07/29 09:24:29;;;;;;;;;;;21.40;76.00;;;;;;4999045;28;1039;-68
2023/07/29 09:26:55;;;;;;;;;;;21.40;76.30;;;;;;5000074;28;900;-67
2023/07/29 09:29:21;;;;;;;;;;;21.40;76.20;;;;;;5000789;28;1495;-67
2023/07/29 09:31:47;;;;;;;;;;;21.50;76.30;;;;;;4999688;28;1902;-68
2023/07/29 09:34:12;;;;;;;;;;;21.50;76.50;;;;;;4997950;28;817;-68
2023/07/29 09:36:38;;;;;;;;;;;21.50;76.50;;;;;;4986546;28;1597;-68
2023/07/29 09:39:03;;;;;;;;;;;21.50;76.40;;;;;;4996188;28;951;-68
2023/07/29 09:41:32;;;;;;;;;;;21.50;76.90;;;;;;4998757;28;1276;-68
2023/07/29 09:43:58;;;;;;;;;;;21.50;77.20;;;;;;4986923;28;868;-68
2023/07/29 09:46:25;;;;;;;;;;;21.50;77.00;;;;;;4985866;28;1007;-68
2023/07/29 09:48:52;;;;;;;;;;;21.50;77.00;;;;;;4991409;28;1353;-68
2023/07/29 09:51:17;;;;;;;;;;;21.60;77.70;;;;;;4983885;28;1997;-68
2023/07/29 09:53:43;;;;;;;;;;;21.60;77.00;;;;;;5003422;28;1422;-67
2023/07/29 09:56:09;;;;;;;;;;;21.60;77.20;;;;;;4984979;28;865;-68
2023/07/29 09:58:35;;;;;;;;;;;21.60;77.40;;;;;;4998899;28;915;-68
2023/07/29 10:01:01;;;;;;;;;;;21.60;76.70;;;;;;4998623;28;854;-68
2023/07/29 10:03:26;;;;;;;;;;;21.60;76.20;;;;;;4983888;28;1224;-67
2023/07/29 10:05:51;;;;;;;;;;;21.60;76.10;;;;;;4988023;28;1318;-68
2023/07/29 10:08:17;;;;;;;;;;;21.60;76.20;;;;;;4997987;28;1054;-68
2023/07/29 10:10:43;;;;;;;;;;;21.60;76.80;;;;;;4998685;28;1902;-68
2023/07/29 10:13:09;;;;;;;;;;;21.70;77.00;;;;;;4998042;28;1209;-67
2023/07/29 10:15:34;;;;;;;;;;;21.70;77.10;;;;;;4986310;28;845;-68
2023/07/29 10:18:00;;;;;;;;;;;21.70;76.70;;;;;;4984604;28;884;-68
2023/07/29 10:20:25;;;;;;;;;;;21.70;75.50;;;;;;4985143;28;1319;-69
2023/07/29 10:22:50;;;;;;;;;;;21.70;74.70;;;;;;4989715;28;1357;-68
2023/07/29 10:25:16;;;;;;;;;;;21.60;73.60;;;;;;4982703;28;1234;-68
2023/07/29 10:27:43;;;;;;;;;;;21.60;73.50;;;;;;4997872;28;1311;-68
2023/07/29 10:30:11;;;;;;;;;;;21.60;73.30;;;;;;4984117;28;1997;-68
2023/07/29 10:32:36;;;;;;;;;;;21.60;73.00;;;;;;4998311;28;1351;-68
2023/07/29 10:35:02;;;;;;;;;;;21.50;72.90;;;;;;4999770;28;892;-68
2023/07/29 10:37:28;;;;;;;;;;;21.50;73.10;;;;;;4997591;28;834;-68
2023/07/29 10:39:54;;;;;;;;;;;21.50;73.10;;;;;;5002203;28;940;-68
2023/07/29 10:42:20;;;;;;;;;;;21.50;73.10;;;;;;4979797;28;1272;-68
2023/07/29 10:44:46;;;;;;;;;;;21.50;72.90;;;;;;4998325;28;859;-68
2023/07/29 10:47:12;;;;;;;;;;;21.50;72.80;;;;;;4986476;28;879;-68
2023/07/29 10:49:40;;;;;;;;;;;21.50;72.70;;;;;;4996997;28;891;-68
2023/07/29 10:52:06;;;;;;;;;;;21.50;72.80;;;;;;4984086;28;1965;-68
2023/07/29 10:54:31;;;;;;;;;;;21.50;72.70;;;;;;5000178;28;821;-68
2023/07/29 10:56:57;;;;;;;;;;;21.50;72.60;;;;;;4991431;28;1257;-68
2023/07/29 10:59:30;;;;;;;;;;;21.50;72.60;;;;;;4996023;28;1456;-68
2023/07/29 11:01:57;;;;;;;;;;;21.50;73.30;;;;;;4999826;28;1243;-68
2023/07/29 11:04:26;;;;;;;;;;;21.50;72.50;;;;;;4997161;28;927;-68
2023/07/29 11:07:04;;;;;;;;;;;21.50;72.40;;;;;;5001648;28;821;-68
2023/07/29 11:09:51;;;;;;;;;;;21.40;72.30;;;;;;4994433;28;923;-68
2023/07/29 11:12:33;;;;;;;;;;;21.40;71.90;;;;;;4992182;28;1894;-68
2023/07/29 11:15:03;;;;;;;;;;;21.40;71.90;;;;;;4997138;28;964;-68
2023/07/29 11:17:29;;;;;;;;;;;21.40;72.00;;;;;;4995127;28;923;-69
2023/07/29 11:19:54;;;;;;;;;;;21.40;72.20;;;;;;5003459;28;1363;-68
2023/07/29 11:22:20;;;;;;;;;;;21.40;72.60;;;;;;4988517;28;1339;-68
2023/07/29 11:24:45;;;;;;;;;;;21.40;72.20;;;;;;5001728;28;817;-69
2023/07/29 11:27:11;;;;;;;;;;;21.40;72.10;;;;;;5002384;28;1247;-69
2023/07/29 11:29:37;;;;;;;;;;;21.40;71.70;;;;;;4998876;28;1558;-69
2023/07/29 11:32:02;;;;;;;;;;;21.40;71.80;;;;;;4999297;28;1957;-69
2023/07/29 11:34:34;;;;;;;;;;;21.40;71.80;;;;;;4999789;28;2139;-69
2023/07/29 11:37:00;;;;;;;;;;;21.40;71.80;;;;;;5001307;28;1325;-69
2023/07/29 11:39:25;;;;;;;;;;;21.40;71.90;;;;;;5005218;28;1343;-69
2023/07/29 11:41:50;;;;;;;;;;;21.40;71.80;;;;;;4998942;28;1412;-69
2023/07/29 11:44:16;;;;;;;;;;;21.40;71.80;;;;;;5003117;28;959;-69
2023/07/29 11:46:42;;;;;;;;;;;21.40;71.70;;;;;;5001421;28;1019;-68
2023/07/29 11:49:08;;;;;;;;;;;21.30;71.60;;;;;;4992798;28;1325;-69
2023/07/29 11:51:33;;;;;;;;;;;21.40;71.70;;;;;;5000332;28;1894;-69
2023/07/29 11:53:59;;;;;;;;;;;21.40;71.70;;;;;;5003355;28;998;-68
2023/07/29 11:56:24;;;;;;;;;;;21.30;71.60;;;;;;4977328;28;929;-69
2023/07/29 11:58:50;;;;;;;;;;;21.30;71.60;;;;;;4999129;28;855;-68
2023/07/29 12:01:15;;;;;;;;;;;21.30;71.50;;;;;;4996681;28;886;-68
2023/07/29 12:03:41;;;;;;;;;;;21.30;71.50;;;;;;4999861;28;2129;-69
2023/07/29 12:06:06;;;;;;;;;;;21.30;71.50;;;;;;4993413;28;2216;-69
2023/07/29 12:08:32;;;;;;;;;;;21.30;71.50;;;;;;5000809;28;1413;-69
2023/07/29 12:10:57;;;;;;;;;;;21.30;71.50;;;;;;4996990;28;1894;-69
2023/07/29 12:13:26;;;;;;;;;;;21.30;71.40;;;;;;5002132;28;1261;-69
2023/07/29 12:15:51;;;;;;;;;;;21.30;71.40;;;;;;5006803;28;824;-69
2023/07/29 12:18:17;;;;;;;;;;;21.30;71.40;;;;;;5003486;28;1293;-69
2023/07/29 12:20:43;;;;;;;;;;;21.30;71.40;;;;;;5001701;28;1555;-69
2023/07/29 12:23:08;;;;;;;;;;;21.30;71.40;;;;;;4987259;28;1415;-69
2023/07/29 12:25:34;;;;;;;;;;;21.30;71.40;;;;;;5001280;28;1580;-71
2023/07/29 12:28:06;;;;;;;;;;;21.30;71.30;;;;;;4984576;28;1814;-71
2023/07/29 12:30:32;;;;;;;;;;;21.30;71.30;;;;;;4997721;28;1910;-69
2023/07/29 12:32:57;;;;;;;;;;;21.30;71.30;;;;;;4986091;28;1447;-70
2023/07/29 12:35:23;;;;;;;;;;;21.30;71.30;;;;;;4999746;28;880;-70
2023/07/29 12:37:58;;;;;;;;;;;21.30;71.30;;;;;;4995701;28;987;-70
2023/07/29 12:40:23;;;;;;;;;;;21.30;71.20;;;;;;4996997;28;819;-71
2023/07/29 12:42:50;;;;;;;;;;;21.30;71.20;;;;;;4999534;28;1217;-70
2023/07/29 12:45:16;;;;;;;;;;;21.30;71.20;;;;;;4996859;28;915;-69
2023/07/29 12:47:41;;;;;;;;;;;21.30;71.20;;;;;;5002646;28;941;-71
2023/07/29 12:50:07;;;;;;;;;;;21.30;72.00;;;;;;4996744;28;1361;-71
2023/07/29 12:52:32;;;;;;;;;;;21.20;71.10;;;;;;5001336;28;1969;-71
2023/07/29 12:54:58;;;;;;;;;;;21.20;71.10;;;;;;4998445;28;968;-70
2023/07/29 12:57:23;;;;;;;;;;;21.20;71.10;;;;;;4999989;28;865;-70
2023/07/29 12:59:48;;;;;;;;;;;21.30;71.10;;;;;;4992486;28;811;-71
2023/07/29 13:02:14;;;;;;;;;;;21.30;71.10;;;;;;5000606;28;1245;-71
2023/07/29 13:04:39;;;;;;;;;;;21.30;71.10;;;;;;5001658;28;1249;-70
2023/07/29 13:07:06;;;;;;;;;;;21.30;71.10;;;;;;5002324;28;1340;-70
2023/07/29 13:09:32;;;;;;;;;;;21.20;71.00;;;;;;5001252;28;1595;-70
2023/07/29 13:11:57;;;;;;;;;;;21.20;71.00;;;;;;5002083;28;1895;-70
2023/07/29 13:14:23;;;;;;;;;;;21.30;71.00;;;;;;5001826;28;1010;-70
2023/07/29 13:16:48;;;;;;;;;;;21.30;71.00;;;;;;4984565;28;900;-70
2023/07/29 13:19:14;;;;;;;;;;;21.20;70.90;;;;;;4999880;28;1300;-70
2023/07/29 13:21:39;;;;;;;;;;;21.20;70.90;;;;;;5000300;28;1412;-70
2023/07/29 13:24:04;;;;;;;;;;;21.30;71.00;;;;;;4996938;28;912;-70
2023/07/29 13:26:30;;;;;;;;;;;21.20;70.90;;;;;;4996321;28;1015;-70
2023/07/29 13:28:55;;;;;;;;;;;21.30;70.90;;;;;;4998851;28;1265;-70
2023/07/29 13:31:21;;;;;;;;;;;21.20;70.90;;;;;;5000778;28;1962;-70
2023/07/29 13:33:46;;;;;;;;;;;21.20;70.80;;;;;;4998884;28;1296;-70
2023/07/29 13:36:12;;;;;;;;;;;21.20;70.90;;;;;;5000258;28;985;-70
2023/07/29 13:38:37;;;;;;;;;;;21.30;70.90;;;;;;5001346;28;1022;-70
2023/07/29 13:41:03;;;;;;;;;;;21.30;70.90;;;;;;4996407;28;842;-70
2023/07/29 13:43:28;;;;;;;;;;;21.20;70.80;;;;;;4998662;28;1340;-70
2023/07/29 13:45:54;;;;;;;;;;;21.20;70.80;;;;;;5000434;28;900;-70
2023/07/29 13:48:22;;;;;;;;;;;21.20;70.80;;;;;;4999193;28;828;-70
2023/07/29 13:50:48;;;;;;;;;;;21.20;70.70;;;;;;4999743;28;1965;-70
2023/07/29 13:53:13;;;;;;;;;;;21.20;70.70;;;;;;4998213;28;1231;-70
2023/07/29 13:55:38;;;;;;;;;;;21.20;70.70;;;;;;4998566;28;888;-70
2023/07/29 13:58:04;;;;;;;;;;;21.20;70.70;;;;;;4999900;28;2138;-69
2023/07/29 14:00:29;;;;;;;;;;;21.20;70.70;;;;;;4998975;28;1341;-70
2023/07/29 14:02:55;;;;;;;;;;;21.20;70.70;;;;;;4998598;28;1272;-70
2023/07/29 14:05:20;;;;;;;;;;;21.20;70.70;;;;;;4996928;28;863;-70
2023/07/29 14:07:46;;;;;;;;;;;21.20;70.70;;;;;;4994718;28;1007;-70
2023/07/29 14:10:11;;;;;;;;;;;21.20;70.70;;;;;;4997354;28;952;-70
2023/07/29 14:12:37;;;;;;;;;;;21.20;70.70;;;;;;4997538;28;1955;-70
2023/07/29 14:15:03;;;;;;;;;;;21.20;70.70;;;;;;4988206;28;1412;-70
2023/07/29 14:17:28;;;;;;;;;;;21.20;70.60;;;;;;4999986;28;887;-70
2023/07/29 14:19:54;;;;;;;;;;;21.20;70.60;;;;;;4997702;28;1352;-70
2023/07/29 14:22:19;;;;;;;;;;;21.20;70.60;;;;;;4998624;28;1257;-70
2023/07/29 14:24:45;;;;;;;;;;;21.20;70.60;;;;;;4997648;28;829;-70
2023/07/29 14:27:10;;;;;;;;;;;21.20;70.60;;;;;;4990800;28;1386;-70
2023/07/29 14:29:36;;;;;;;;;;;21.20;70.60;;;;;;4998977;28;936;-70